Time;durP1;ratioP1;P1;durP2;ratioP2;P2;SDS_P1;SDS_P2;PMS_P1;PMS_P2;Temp;Humidity;BMP_temperature;BMP_pressure;BME280_temperature;BME280_humidity;BME280_pressure;Samples;Min_cycle;Max_cycle;Signal;HPM_P1;HPM_P2
2022/03/31 00:02:05;;;;;;;;;;;21.20;36.10;;;;;;5147391;27;19927;-57
2022/03/31 00:04:31;;;;;;;;;;;20.80;37.00;;;;;;5124303;27;19930;-48
2022/03/31 00:06:57;;;;;;;;;;;21.20;36.20;;;;;;5142263;27;19954;-58
2022/03/31 00:09:23;;;;;;;;;;;20.80;36.60;;;;;;5147159;27;19924;-56
2022/03/31 00:11:48;;;;;;;;;;;21.10;36.20;;;;;;5120147;27;19934;-55
2022/03/31 00:14:14;;;;;;;;;;;20.80;36.70;;;;;;5140824;27;19922;-48
2022/03/31 00:16:40;;;;;;;;;;;21.20;36.20;;;;;;5147681;27;19927;-59
2022/03/31 00:19:06;;;;;;;;;;;20.90;36.40;;;;;;5124067;27;20301;-56
2022/03/31 00:21:32;;;;;;;;;;;21.30;36.10;;;;;;5145216;27;19923;-56
2022/03/31 00:23:57;;;;;;;;;;;20.90;36.60;;;;;;5145081;27;19930;-56
2022/03/31 00:26:23;;;;;;;;;;;21.10;36.10;;;;;;5141996;27;19930;-58
2022/03/31 00:28:49;;;;;;;;;;;20.90;36.30;;;;;;5146218;27;19927;-57
2022/03/31 00:31:15;;;;;;;;;;;21.20;35.80;;;;;;5119555;27;19923;-59
2022/03/31 00:33:41;;;;;;;;;;;20.80;36.30;;;;;;5142054;27;20305;-53
2022/03/31 00:36:06;;;;;;;;;;;21.10;35.80;;;;;;5129341;27;19926;-58
2022/03/31 00:38:32;;;;;;;;;;;20.80;36.40;;;;;;5142110;27;19923;-49
2022/03/31 00:40:58;;;;;;;;;;;21.20;35.70;;;;;;5142998;27;19927;-56
2022/03/31 00:43:24;;;;;;;;;;;20.80;36.10;;;;;;5146653;27;19979;-57
2022/03/31 00:45:53;;;;;;;;;;;21.10;35.80;;;;;;5141603;27;20381;-58
2022/03/31 00:48:19;;;;;;;;;;;20.90;36.00;;;;;;5143976;27;19923;-53
2022/03/31 00:50:45;;;;;;;;;;;21.10;35.60;;;;;;5140659;27;19930;-58
2022/03/31 00:53:11;;;;;;;;;;;20.80;36.00;;;;;;5145931;27;19933;-56
2022/03/31 00:55:37;;;;;;;;;;;21.20;35.30;;;;;;5151375;27;20309;-58
2022/03/31 00:58:03;;;;;;;;;;;21.10;35.30;;;;;;5145664;27;19938;-57
2022/03/31 01:00:29;;;;;;;;;;;21.10;35.00;;;;;;5145881;27;20166;-59
2022/03/31 01:02:55;;;;;;;;;;;21.00;35.10;;;;;;5150999;27;20026;-54
2022/03/31 01:05:20;;;;;;;;;;;20.80;35.10;;;;;;5144304;27;19942;-57
2022/03/31 01:07:46;;;;;;;;;;;21.10;34.70;;;;;;5146821;27;19927;-56
2022/03/31 01:10:12;;;;;;;;;;;21.00;34.60;;;;;;5145194;27;19923;-58
2022/03/31 01:12:38;;;;;;;;;;;21.00;34.50;;;;;;5145770;27;19927;-55
2022/03/31 01:15:06;;;;;;;;;;;21.10;34.30;;;;;;5151235;27;19927;-58
2022/03/31 01:17:35;;;;;;;;;;;21.00;34.50;;;;;;5145411;27;19924;-59
2022/03/31 01:20:02;;;;;;;;;;;21.10;34.20;;;;;;5145015;27;20263;-58
2022/03/31 01:22:28;;;;;;;;;;;21.00;34.40;;;;;;5150330;27;19923;-51
2022/03/31 01:24:54;;;;;;;;;;;20.90;34.30;;;;;;5142308;27;20370;-52
2022/03/31 01:27:19;;;;;;;;;;;21.20;34.00;;;;;;5145832;27;19938;-58
2022/03/31 01:29:45;;;;;;;;;;;20.90;34.30;;;;;;5147632;27;19923;-57
2022/03/31 01:32:11;;;;;;;;;;;21.10;34.10;;;;;;5145063;27;19927;-58
2022/03/31 01:34:37;;;;;;;;;;;20.80;34.40;;;;;;5150476;27;20281;-53
2022/03/31 01:37:04;;;;;;;;;;;21.10;34.00;;;;;;5145237;27;19946;-58
2022/03/31 01:39:29;;;;;;;;;;;21.00;34.10;;;;;;5145202;27;19927;-57
2022/03/31 01:41:55;;;;;;;;;;;21.10;33.90;;;;;;5128850;27;19929;-59
2022/03/31 01:44:21;;;;;;;;;;;21.10;34.10;;;;;;5141095;27;20394;-55
2022/03/31 01:46:48;;;;;;;;;;;21.10;33.90;;;;;;5144671;27;19975;-58
2022/03/31 01:49:14;;;;;;;;;;;20.90;34.20;;;;;;5150240;27;19923;-55
2022/03/31 01:51:39;;;;;;;;;;;21.10;33.90;;;;;;5144825;27;20343;-56
2022/03/31 01:54:06;;;;;;;;;;;21.10;34.00;;;;;;5150282;27;19946;-58
2022/03/31 01:56:31;;;;;;;;;;;21.10;33.80;;;;;;5144643;27;19943;-59
2022/03/31 01:58:57;;;;;;;;;;;21.00;34.00;;;;;;5144534;27;20351;-55
2022/03/31 02:01:23;;;;;;;;;;;21.00;33.90;;;;;;5147713;27;19942;-59
2022/03/31 02:03:49;;;;;;;;;;;21.10;33.90;;;;;;5141396;27;19927;-54
2022/03/31 02:06:14;;;;;;;;;;;21.00;33.90;;;;;;5144428;27;19923;-57
2022/03/31 02:08:40;;;;;;;;;;;21.10;33.80;;;;;;5149959;27;19939;-48
2022/03/31 02:11:07;;;;;;;;;;;21.10;33.50;;;;;;5144361;27;19930;-59
2022/03/31 02:13:34;;;;;;;;;;;21.20;33.40;;;;;;5150058;27;19923;-47
2022/03/31 02:15:59;;;;;;;;;;;20.90;33.60;;;;;;5144140;27;20438;-59
2022/03/31 02:18:25;;;;;;;;;;;21.10;33.50;;;;;;5143716;27;19923;-58
2022/03/31 02:20:51;;;;;;;;;;;21.30;33.30;;;;;;5145856;27;20196;-58
2022/03/31 02:23:17;;;;;;;;;;;21.00;33.80;;;;;;5142731;27;19927;-57
2022/03/31 02:25:43;;;;;;;;;;;21.10;33.60;;;;;;5144043;27;19953;-58
2022/03/31 02:28:09;;;;;;;;;;;21.00;34.00;;;;;;5149624;27;20002;-56
2022/03/31 02:30:35;;;;;;;;;;;20.90;33.90;;;;;;5144195;27;20006;-58
2022/03/31 02:33:03;;;;;;;;;;;21.00;33.90;;;;;;5149494;27;19924;-56
2022/03/31 02:35:29;;;;;;;;;;;21.00;33.60;;;;;;5144080;27;19930;-58
2022/03/31 02:37:54;;;;;;;;;;;21.20;33.70;;;;;;5142387;27;19952;-58
2022/03/31 02:40:20;;;;;;;;;;;20.90;34.10;;;;;;5145441;27;20104;-51
2022/03/31 02:42:46;;;;;;;;;;;21.10;33.90;;;;;;5143691;27;19927;-58
2022/03/31 02:45:12;;;;;;;;;;;20.80;34.50;;;;;;5143704;27;20502;-48
2022/03/31 02:47:38;;;;;;;;;;;21.10;33.90;;;;;;5149106;27;20420;-47
2022/03/31 02:50:04;;;;;;;;;;;21.00;34.00;;;;;;5143890;27;19923;-49
2022/03/31 02:55:24;;;;;;;;;;;21.20;33.80;;;;;;5146420;27;19923;-58
2022/03/31 02:55:24;;;;;;;;;;;20.90;34.10;;;;;;5148356;27;20172;-49
2022/03/31 02:57:51;;;;;;;;;;;21.10;33.70;;;;;;5139747;27;19930;-58
2022/03/31 03:00:17;;;;;;;;;;;21.00;33.90;;;;;;5144239;27;19923;-53
2022/03/31 03:02:43;;;;;;;;;;;21.10;33.70;;;;;;5147121;27;19977;-53
2022/03/31 03:05:08;;;;;;;;;;;21.10;33.60;;;;;;5143536;27;20320;-57
2022/03/31 03:07:34;;;;;;;;;;;20.90;33.80;;;;;;5148745;27;19923;-55
2022/03/31 03:10:00;;;;;;;;;;;21.00;33.70;;;;;;5124626;27;19923;-48
2022/03/31 03:12:26;;;;;;;;;;;21.10;33.50;;;;;;5142969;27;19923;-54
2022/03/31 03:14:52;;;;;;;;;;;21.10;33.30;;;;;;5146697;27;19926;-58
2022/03/31 03:17:17;;;;;;;;;;;21.10;33.60;;;;;;5139361;27;19923;-47
2022/03/31 03:19:43;;;;;;;;;;;20.80;33.90;;;;;;5142745;27;19923;-57
2022/03/31 03:22:09;;;;;;;;;;;21.10;33.50;;;;;;5148574;27;20034;-56
2022/03/31 03:24:35;;;;;;;;;;;21.00;33.40;;;;;;5142946;27;19938;-57
2022/03/31 03:27:01;;;;;;;;;;;21.00;33.50;;;;;;5148435;27;19953;-48
2022/03/31 03:29:27;;;;;;;;;;;20.90;33.50;;;;;;5142727;27;19923;-60
2022/03/31 03:31:53;;;;;;;;;;;21.10;33.30;;;;;;5142584;27;19929;-50
2022/03/31 03:34:19;;;;;;;;;;;21.00;33.40;;;;;;5144991;27;20325;-54
2022/03/31 03:36:45;;;;;;;;;;;21.10;33.20;;;;;;5140732;27;19930;-58
2022/03/31 03:39:14;;;;;;;;;;;20.80;33.80;;;;;;5142770;27;20030;-59
2022/03/31 03:41:40;;;;;;;;;;;21.20;33.20;;;;;;5148185;27;19948;-57
2022/03/31 03:44:06;;;;;;;;;;;20.80;33.70;;;;;;5142523;27;19927;-59
2022/03/31 03:46:32;;;;;;;;;;;21.00;33.40;;;;;;5147631;27;19923;-49
2022/03/31 03:48:58;;;;;;;;;;;21.20;33.10;;;;;;5142198;27;19923;-57
2022/03/31 03:51:24;;;;;;;;;;;21.10;33.30;;;;;;5141748;27;19984;-58
2022/03/31 03:53:50;;;;;;;;;;;21.00;33.20;;;;;;5144122;27;20003;-57
2022/03/31 03:56:16;;;;;;;;;;;21.00;33.30;;;;;;5142163;27;20165;-55
2022/03/31 03:58:42;;;;;;;;;;;21.00;33.20;;;;;;5142665;27;20145;-59
2022/03/31 04:01:08;;;;;;;;;;;21.10;33.20;;;;;;5147981;27;19972;-58
2022/03/31 04:03:34;;;;;;;;;;;20.90;33.40;;;;;;5142496;27;19936;-58
2022/03/31 04:06:00;;;;;;;;;;;21.00;33.10;;;;;;5146377;27;19923;-56
2022/03/31 04:08:26;;;;;;;;;;;20.80;33.30;;;;;;5143836;27;20347;-49
2022/03/31 04:10:52;;;;;;;;;;;21.10;32.90;;;;;;5139843;27;19927;-56
2022/03/31 04:13:17;;;;;;;;;;;20.80;33.20;;;;;;5144814;27;19927;-58
2022/03/31 04:15:43;;;;;;;;;;;21.10;32.90;;;;;;5123817;27;19923;-53
2022/03/31 04:18:09;;;;;;;;;;;20.90;33.10;;;;;;5142223;27;20279;-59
2022/03/31 04:20:35;;;;;;;;;;;20.90;33.10;;;;;;5147957;27;20007;-58
2022/03/31 04:23:01;;;;;;;;;;;21.10;32.90;;;;;;5142076;27;19972;-55
2022/03/31 04:25:27;;;;;;;;;;;21.10;32.80;;;;;;5143772;27;20010;-59
2022/03/31 04:27:53;;;;;;;;;;;20.80;33.40;;;;;;5149789;27;19923;-47
2022/03/31 04:30:21;;;;;;;;;;;21.10;32.80;;;;;;5142752;27;19923;-57
2022/03/31 04:32:51;;;;;;;;;;;20.90;33.30;;;;;;5150829;27;20033;-53
2022/03/31 04:35:17;;;;;;;;;;;21.20;32.80;;;;;;5146435;27;19923;-59
2022/03/31 04:37:43;;;;;;;;;;;21.10;33.00;;;;;;5144305;27;19981;-51
2022/03/31 04:40:08;;;;;;;;;;;21.10;32.90;;;;;;5151656;27;19949;-58
2022/03/31 04:42:34;;;;;;;;;;;20.90;33.20;;;;;;5146101;27;19975;-56
2022/03/31 04:45:02;;;;;;;;;;;21.00;32.90;;;;;;5145780;27;20036;-58
2022/03/31 04:47:28;;;;;;;;;;;21.00;33.10;;;;;;5131512;27;19976;-50
2022/03/31 04:49:54;;;;;;;;;;;20.90;33.00;;;;;;5142645;27;19963;-55
2022/03/31 04:52:20;;;;;;;;;;;21.10;32.90;;;;;;5151301;27;19927;-57
2022/03/31 04:54:46;;;;;;;;;;;21.10;32.70;;;;;;5146148;27;19938;-59
2022/03/31 04:57:15;;;;;;;;;;;21.00;32.90;;;;;;5145951;27;19923;-49
2022/03/31 04:59:41;;;;;;;;;;;21.10;32.60;;;;;;5151353;27;19929;-58
2022/03/31 05:02:07;;;;;;;;;;;21.10;32.60;;;;;;5145644;27;20298;-58
2022/03/31 05:04:33;;;;;;;;;;;21.10;32.50;;;;;;5145338;27;19931;-59
2022/03/31 05:06:59;;;;;;;;;;;20.80;33.00;;;;;;5147884;27;19978;-57
2022/03/31 05:09:24;;;;;;;;;;;21.10;32.50;;;;;;5125541;27;19924;-58
2022/03/31 05:11:50;;;;;;;;;;;20.90;32.80;;;;;;5149078;27;19923;-58
2022/03/31 05:14:16;;;;;;;;;;;21.10;32.50;;;;;;5148149;27;19922;-58
2022/03/31 05:16:42;;;;;;;;;;;21.00;32.50;;;;;;5145339;27;19959;-56
2022/03/31 05:19:08;;;;;;;;;;;21.30;32.20;;;;;;5131148;27;19928;-59
2022/03/31 05:21:34;;;;;;;;;;;20.80;32.80;;;;;;5145078;27;19981;-56
2022/03/31 05:23:59;;;;;;;;;;;21.10;32.30;;;;;;5144300;27;19934;-51
2022/03/31 05:26:25;;;;;;;;;;;21.10;32.20;;;;;;5146899;27;19923;-57
2022/03/31 05:28:51;;;;;;;;;;;21.10;32.20;;;;;;5144976;27;20358;-57
2022/03/31 05:31:17;;;;;;;;;;;21.00;32.20;;;;;;5146394;27;19930;-57
2022/03/31 05:33:42;;;;;;;;;;;21.10;32.10;;;;;;5149645;27;19932;-58
2022/03/31 05:36:08;;;;;;;;;;;20.80;32.50;;;;;;5145207;27;19923;-56
2022/03/31 05:38:34;;;;;;;;;;;21.10;32.10;;;;;;5150045;27;19933;-54
2022/03/31 05:41:00;;;;;;;;;;;21.10;32.00;;;;;;5144578;27;19927;-59
2022/03/31 05:43:26;;;;;;;;;;;21.00;32.30;;;;;;5142692;27;19923;-51
2022/03/31 05:45:52;;;;;;;;;;;21.10;32.10;;;;;;5147796;27;19923;-57
2022/03/31 05:48:17;;;;;;;;;;;21.00;32.30;;;;;;5144917;27;19963;-52
2022/03/31 05:50:43;;;;;;;;;;;21.00;32.20;;;;;;5144815;27;19927;-56
2022/03/31 05:53:09;;;;;;;;;;;21.00;32.10;;;;;;5150630;27;19923;-55
2022/03/31 05:55:36;;;;;;;;;;;21.00;32.10;;;;;;5144777;27;19935;-57
2022/03/31 05:58:02;;;;;;;;;;;21.00;32.10;;;;;;5149895;27;19970;-56
2022/03/31 06:00:28;;;;;;;;;;;21.00;32.10;;;;;;5143761;27;19949;-58
2022/03/31 06:02:55;;;;;;;;;;;21.00;32.20;;;;;;5140997;27;19923;-51
2022/03/31 06:05:21;;;;;;;;;;;21.10;32.00;;;;;;5130386;27;19923;-56
2022/03/31 06:07:47;;;;;;;;;;;21.10;32.10;;;;;;5144294;27;19931;-54
2022/03/31 06:10:13;;;;;;;;;;;21.00;32.10;;;;;;5144470;27;20080;-58
2022/03/31 06:12:38;;;;;;;;;;;21.00;32.10;;;;;;5149973;27;19930;-50
2022/03/31 06:15:05;;;;;;;;;;;21.00;32.00;;;;;;5144251;27;19923;-58
2022/03/31 06:17:31;;;;;;;;;;;21.10;31.90;;;;;;5149598;27;20320;-57
2022/03/31 06:19:57;;;;;;;;;;;21.00;32.10;;;;;;5142787;27;19923;-50
2022/03/31 06:22:23;;;;;;;;;;;21.10;31.90;;;;;;5140603;27;19976;-59
2022/03/31 06:24:49;;;;;;;;;;;20.90;32.20;;;;;;5149550;27;20027;-53
2022/03/31 06:27:15;;;;;;;;;;;21.10;32.00;;;;;;5144076;27;19924;-58
2022/03/31 06:29:41;;;;;;;;;;;20.90;32.30;;;;;;5144314;27;19931;-54
2022/03/31 06:32:07;;;;;;;;;;;21.00;32.00;;;;;;5149465;27;20014;-57
2022/03/31 06:34:33;;;;;;;;;;;21.00;32.10;;;;;;5143623;27;20345;-51
2022/03/31 06:36:59;;;;;;;;;;;21.10;32.10;;;;;;5147263;27;19929;-57
2022/03/31 06:39:25;;;;;;;;;;;21.20;32.00;;;;;;5142894;27;19923;-57
2022/03/31 06:41:51;;;;;;;;;;;20.90;32.50;;;;;;5141766;27;19923;-55
2022/03/31 06:44:19;;;;;;;;;;;21.20;31.90;;;;;;5149344;27;20448;-57
2022/03/31 06:46:46;;;;;;;;;;;21.00;32.10;;;;;;5143974;27;19933;-58
2022/03/31 06:49:12;;;;;;;;;;;21.00;32.20;;;;;;5143004;27;20307;-57
2022/03/31 06:51:37;;;;;;;;;;;21.00;32.10;;;;;;5149069;27;19970;-59
2022/03/31 06:54:03;;;;;;;;;;;20.90;32.40;;;;;;5143117;27;19978;-54
2022/03/31 06:56:29;;;;;;;;;;;21.10;32.00;;;;;;5142387;27;19927;-57
2022/03/31 06:58:55;;;;;;;;;;;20.90;32.30;;;;;;5144817;27;19952;-54
2022/03/31 07:01:21;;;;;;;;;;;21.20;32.00;;;;;;5142722;27;19986;-56
2022/03/31 07:03:47;;;;;;;;;;;20.90;32.40;;;;;;5148969;27;20010;-57
2022/03/31 07:06:13;;;;;;;;;;;21.20;32.00;;;;;;5143470;27;19971;-58
2022/03/31 07:08:38;;;;;;;;;;;20.80;32.50;;;;;;5143077;27;20324;-59
2022/03/31 07:11:05;;;;;;;;;;;21.10;32.20;;;;;;5148438;27;19927;-50
2022/03/31 07:13:30;;;;;;;;;;;21.10;32.20;;;;;;5142734;27;20478;-58
2022/03/31 07:15:57;;;;;;;;;;;21.00;32.20;;;;;;5140815;27;20192;-49
2022/03/31 07:18:22;;;;;;;;;;;21.10;32.20;;;;;;5145594;27;19929;-58
2022/03/31 07:20:49;;;;;;;;;;;21.10;32.20;;;;;;5143029;27;19923;-54
2022/03/31 07:23:23;;;;;;;;;;;21.00;32.30;;;;;;5148539;27;20003;-59
2022/03/31 07:25:49;;;;;;;;;;;20.90;32.60;;;;;;5144143;27;20271;-52
2022/03/31 07:28:15;;;;;;;;;;;21.00;32.30;;;;;;5142781;27;19973;-57
2022/03/31 07:30:41;;;;;;;;;;;21.10;32.30;;;;;;5148251;27;19923;-50
2022/03/31 07:33:08;;;;;;;;;;;21.00;32.30;;;;;;5142232;27;19943;-59
2022/03/31 07:35:34;;;;;;;;;;;21.10;32.30;;;;;;5138992;27;19943;-58
2022/03/31 07:38:03;;;;;;;;;;;20.90;32.50;;;;;;5147273;27;20018;-57
2022/03/31 07:40:29;;;;;;;;;;;21.10;32.30;;;;;;5142623;27;19923;-52
2022/03/31 07:42:54;;;;;;;;;;;21.00;32.40;;;;;;5143347;27;19971;-57
2022/03/31 07:45:20;;;;;;;;;;;21.00;32.40;;;;;;5147898;27;19976;-51
2022/03/31 07:47:46;;;;;;;;;;;21.10;32.30;;;;;;5142700;27;19927;-57
2022/03/31 07:50:13;;;;;;;;;;;21.00;32.60;;;;;;5147725;27;20305;-55
2022/03/31 07:52:39;;;;;;;;;;;21.00;32.50;;;;;;5121820;27;19922;-58
2022/03/31 07:55:05;;;;;;;;;;;21.00;32.60;;;;;;5139070;27;19923;-58
2022/03/31 07:57:31;;;;;;;;;;;20.80;32.90;;;;;;5147803;27;19927;-51
2022/03/31 07:59:57;;;;;;;;;;;21.10;32.30;;;;;;5123055;27;19938;-58
2022/03/31 08:02:25;;;;;;;;;;;20.90;32.70;;;;;;5142457;27;19974;-59
2022/03/31 08:04:51;;;;;;;;;;;21.10;32.40;;;;;;5147672;27;19927;-59
2022/03/31 08:07:17;;;;;;;;;;;20.80;32.90;;;;;;5142034;27;19930;-59
2022/03/31 08:09:42;;;;;;;;;;;21.00;32.50;;;;;;5147379;27;19935;-50
2022/03/31 08:12:08;;;;;;;;;;;20.90;32.70;;;;;;5139018;27;19934;-57
2022/03/31 08:14:34;;;;;;;;;;;21.20;32.40;;;;;;5140764;27;20345;-58
2022/03/31 08:17:00;;;;;;;;;;;20.90;32.70;;;;;;5147798;27;19923;-48
2022/03/31 08:19:27;;;;;;;;;;;21.20;32.30;;;;;;5142240;27;19934;-58
2022/03/31 08:21:53;;;;;;;;;;;20.80;33.00;;;;;;5142212;27;20010;-49
2022/03/31 08:24:19;;;;;;;;;;;21.10;32.50;;;;;;5124900;27;19935;-58
2022/03/31 08:26:46;;;;;;;;;;;21.00;32.70;;;;;;5141815;27;19937;-56
2022/03/31 08:29:11;;;;;;;;;;;21.20;32.30;;;;;;5144399;27;20321;-57
2022/03/31 08:31:38;;;;;;;;;;;20.80;33.00;;;;;;5139409;27;19923;-50
2022/03/31 08:34:04;;;;;;;;;;;21.10;32.50;;;;;;5142013;27;19977;-58
2022/03/31 08:36:30;;;;;;;;;;;21.00;32.70;;;;;;5147661;27;19931;-50
2022/03/31 08:38:56;;;;;;;;;;;21.00;32.60;;;;;;5142201;27;20389;-55
2022/03/31 08:41:26;;;;;;;;;;;21.10;32.60;;;;;;5142195;27;19930;-57
2022/03/31 08:43:51;;;;;;;;;;;21.00;32.70;;;;;;5147429;27;19927;-55
2022/03/31 08:46:17;;;;;;;;;;;21.00;32.70;;;;;;5141682;27;19930;-58
2022/03/31 08:48:43;;;;;;;;;;;21.00;32.90;;;;;;5139629;27;20390;-52
2022/03/31 08:51:09;;;;;;;;;;;21.00;32.80;;;;;;5145048;27;19971;-57
2022/03/31 08:53:35;;;;;;;;;;;21.00;32.90;;;;;;5141930;27;20414;-52
2022/03/31 08:56:01;;;;;;;;;;;21.00;32.70;;;;;;5147348;27;19972;-59
2022/03/31 08:58:27;;;;;;;;;;;21.10;32.70;;;;;;5142140;27;19931;-58
2022/03/31 09:00:53;;;;;;;;;;;21.00;32.80;;;;;;5141916;27;20428;-50
2022/03/31 09:03:18;;;;;;;;;;;21.20;32.60;;;;;;5147011;27;19972;-50
2022/03/31 09:05:54;;;;;;;;;;;20.90;33.00;;;;;;5140834;27;19929;-58
2022/03/31 09:08:20;;;;;;;;;;;21.10;32.80;;;;;;5137797;27;20518;-55
2022/03/31 09:10:49;;;;;;;;;;;20.90;33.20;;;;;;5146965;27;19932;-56
2022/03/31 09:13:21;;;;;;;;;;;21.20;32.80;;;;;;5144661;27;19923;-57
2022/03/31 09:15:48;;;;;;;;;;;20.80;33.40;;;;;;5146684;27;20013;-56
2022/03/31 09:18:15;;;;;;;;;;;21.20;32.80;;;;;;5150452;27;20815;-57
2022/03/31 09:20:43;;;;;;;;;;;21.10;33.00;;;;;;5145482;27;19930;-58
2022/03/31 09:23:15;;;;;;;;;;;21.20;32.80;;;;;;5150487;27;19923;-58
2022/03/31 09:25:41;;;;;;;;;;;20.90;33.40;;;;;;5142223;27;20382;-57
2022/03/31 09:28:25;;;;;;;;;;;21.00;33.10;;;;;;5143285;27;19974;-49
2022/03/31 09:30:52;;;;;;;;;;;21.20;32.90;;;;;;5150720;27;20305;-59
2022/03/31 09:33:33;;;;;;;;;;;20.80;33.40;;;;;;5145345;27;19945;-56
2022/03/31 09:36:00;;;;;;;;;;;21.20;32.90;;;;;;5145408;27;20013;-58
2022/03/31 09:38:26;;;;;;;;;;;20.90;33.50;;;;;;5150612;27;19923;-56
2022/03/31 09:40:52;;;;;;;;;;;21.20;33.00;;;;;;5144989;27;19930;-59
2022/03/31 09:43:18;;;;;;;;;;;20.80;33.50;;;;;;5143687;27;20565;-51
2022/03/31 09:45:44;;;;;;;;;;;21.20;33.10;;;;;;5146800;27;19927;-58
2022/03/31 09:48:17;;;;;;;;;;;20.80;33.60;;;;;;5144723;27;20411;-59
2022/03/31 09:50:42;;;;;;;;;;;21.10;33.10;;;;;;5145141;27;19983;-56
2022/03/31 09:53:08;;;;;;;;;;;20.90;33.30;;;;;;5150501;27;19927;-57
2022/03/31 09:55:34;;;;;;;;;;;21.30;33.00;;;;;;5144865;27;19923;-59
2022/03/31 09:58:00;;;;;;;;;;;20.90;33.50;;;;;;5150025;27;20389;-56
2022/03/31 10:00:26;;;;;;;;;;;21.20;33.00;;;;;;5125866;27;19930;-58
2022/03/31 10:02:55;;;;;;;;;;;20.80;33.80;;;;;;5141328;27;19928;-54
2022/03/31 10:05:21;;;;;;;;;;;21.20;33.20;;;;;;5148764;27;19967;-59
2022/03/31 10:07:47;;;;;;;;;;;20.80;33.70;;;;;;5144729;27;20390;-53
2022/03/31 10:10:13;;;;;;;;;;;21.10;33.30;;;;;;5144517;27;20382;-59
2022/03/31 10:12:43;;;;;;;;;;;20.90;33.70;;;;;;5150056;27;19977;-58
2022/03/31 10:15:11;;;;;;;;;;;21.30;33.20;;;;;;5126192;27;19931;-59
2022/03/31 10:17:37;;;;;;;;;;;20.90;33.90;;;;;;5148300;27;19934;-57
2022/03/31 10:20:12;;;;;;;;;;;21.20;33.50;;;;;;5144176;27;20451;-57
2022/03/31 10:25:22;;;;;;;;;;;21.20;33.50;;;;;;5131959;27;19923;-56
2022/03/31 10:27:50;;;;;;;;;;;21.00;33.90;;;;;;5127604;27;19931;-56
2022/03/31 10:30:20;;;;;;;;;;;21.00;33.80;;;;;;5143921;27;19927;-59
2022/03/31 10:32:49;;;;;;;;;;;21.00;33.90;;;;;;5149453;27;19927;-59
2022/03/31 10:35:28;;;;;;;;;;;21.00;33.80;;;;;;5143553;27;20438;-53
2022/03/31 10:37:54;;;;;;;;;;;21.20;33.70;;;;;;5143399;27;19923;-58
2022/03/31 10:40:32;;;;;;;;;;;20.80;34.20;;;;;;5145632;27;19923;-50
2022/03/31 10:42:58;;;;;;;;;;;21.20;33.80;;;;;;5143490;27;19962;-58
2022/03/31 10:45:36;;;;;;;;;;;20.90;34.30;;;;;;5143707;27;19927;-59
2022/03/31 10:48:15;;;;;;;;;;;21.20;33.90;;;;;;5148843;27;20379;-58
2022/03/31 10:50:41;;;;;;;;;;;20.80;34.50;;;;;;5143536;27;20010;-56
2022/03/31 10:53:07;;;;;;;;;;;21.10;34.00;;;;;;5144021;27;20275;-58
2022/03/31 10:55:40;;;;;;;;;;;21.00;34.30;;;;;;5148530;27;19937;-55
2022/03/31 10:58:06;;;;;;;;;;;21.10;34.20;;;;;;5140536;27;20374;-58
2022/03/31 11:00:32;;;;;;;;;;;21.00;34.50;;;;;;5141922;27;20180;-58
2022/03/31 11:02:57;;;;;;;;;;;21.20;34.10;;;;;;5149025;27;19923;-58
2022/03/31 11:05:25;;;;;;;;;;;21.00;34.50;;;;;;5143359;27;19931;-59
2022/03/31 11:08:04;;;;;;;;;;;21.10;34.20;;;;;;5145121;27;20033;-59
2022/03/31 11:10:39;;;;;;;;;;;21.00;34.50;;;;;;5147806;27;19936;-56
2022/03/31 11:13:04;;;;;;;;;;;21.00;34.50;;;;;;5143017;27;20017;-56
2022/03/31 11:15:31;;;;;;;;;;;21.10;34.40;;;;;;5147302;27;19938;-52
2022/03/31 11:17:57;;;;;;;;;;;21.00;34.60;;;;;;5139420;27;19962;-50
2022/03/31 11:20:24;;;;;;;;;;;21.20;34.30;;;;;;5143020;27;19927;-56
2022/03/31 11:22:50;;;;;;;;;;;20.90;34.70;;;;;;5148348;27;20358;-58
2022/03/31 11:25:16;;;;;;;;;;;21.20;34.40;;;;;;5143143;27;20718;-56
2022/03/31 11:27:42;;;;;;;;;;;21.00;34.70;;;;;;5143091;27;20694;-57
2022/03/31 11:30:09;;;;;;;;;;;21.00;34.80;;;;;;5128058;27;19927;-55
2022/03/31 11:32:35;;;;;;;;;;;21.00;34.80;;;;;;5142491;27;20342;-57
2022/03/31 11:35:02;;;;;;;;;;;21.10;34.80;;;;;;5144450;27;19927;-54
2022/03/31 11:37:28;;;;;;;;;;;21.10;34.70;;;;;;5142332;27;19923;-58
2022/03/31 11:39:53;;;;;;;;;;;21.00;34.90;;;;;;5142895;27;19927;-58
2022/03/31 11:42:19;;;;;;;;;;;21.00;34.70;;;;;;5148256;27;19927;-57
2022/03/31 11:44:45;;;;;;;;;;;21.10;34.70;;;;;;5142973;27;19927;-58
2022/03/31 11:47:11;;;;;;;;;;;21.00;34.80;;;;;;5142677;27;19923;-48
2022/03/31 11:49:37;;;;;;;;;;;21.20;34.60;;;;;;5147752;27;19975;-56
2022/03/31 11:52:05;;;;;;;;;;;21.00;35.00;;;;;;5141233;27;19927;-50
2022/03/31 11:54:31;;;;;;;;;;;21.20;34.80;;;;;;5140321;27;19929;-53
2022/03/31 11:57:02;;;;;;;;;;;21.00;34.90;;;;;;5146466;27;19926;-54
2022/03/31 11:59:28;;;;;;;;;;;21.20;34.70;;;;;;5142474;27;19950;-58
2022/03/31 12:01:54;;;;;;;;;;;20.90;35.30;;;;;;5147926;27;20026;-56
2022/03/31 12:04:24;;;;;;;;;;;21.10;34.90;;;;;;5142718;27;20314;-59
2022/03/31 12:06:50;;;;;;;;;;;20.90;35.30;;;;;;5142461;27;20299;-57
2022/03/31 12:09:16;;;;;;;;;;;21.20;34.80;;;;;;5129034;27;20031;-58
2022/03/31 12:11:42;;;;;;;;;;;21.00;35.30;;;;;;5139446;27;20053;-56
2022/03/31 12:14:10;;;;;;;;;;;21.10;35.00;;;;;;5139907;27;20200;-58
2022/03/31 12:16:42;;;;;;;;;;;21.00;35.30;;;;;;5147691;27;19931;-59
2022/03/31 12:19:08;;;;;;;;;;;21.10;35.00;;;;;;5142152;27;19931;-59
2022/03/31 12:21:34;;;;;;;;;;;21.10;35.10;;;;;;5144885;27;19966;-56
2022/03/31 12:24:03;;;;;;;;;;;21.00;35.20;;;;;;5126659;27;20387;-50
2022/03/31 12:26:29;;;;;;;;;;;21.10;35.10;;;;;;5141853;27;20413;-46
2022/03/31 12:28:56;;;;;;;;;;;20.90;35.40;;;;;;5146467;27;19944;-46
2022/03/31 12:31:23;;;;;;;;;;;21.10;35.00;;;;;;5138093;27;19930;-56
2022/03/31 12:33:51;;;;;;;;;;;20.80;35.50;;;;;;5141726;27;20363;-50
2022/03/31 12:36:16;;;;;;;;;;;21.20;35.10;;;;;;5147444;27;20313;-58
2022/03/31 12:38:43;;;;;;;;;;;21.00;35.50;;;;;;5123343;27;19927;-55
2022/03/31 12:41:18;;;;;;;;;;;21.10;35.20;;;;;;5141996;27;19927;-57
2022/03/31 12:43:57;;;;;;;;;;;21.20;35.30;;;;;;5147492;27;19929;-56
2022/03/31 12:46:23;;;;;;;;;;;21.10;35.30;;;;;;5141469;27;19923;-59
2022/03/31 12:48:49;;;;;;;;;;;21.20;35.30;;;;;;5124059;27;19930;-54
2022/03/31 12:51:15;;;;;;;;;;;21.00;35.40;;;;;;5149355;27;19939;-48
2022/03/31 12:53:42;;;;;;;;;;;21.20;35.20;;;;;;5146013;27;19930;-58
2022/03/31 12:56:08;;;;;;;;;;;21.00;35.40;;;;;;5151623;27;20068;-56
2022/03/31 12:58:34;;;;;;;;;;;21.20;35.10;;;;;;5146166;27;19934;-59
2022/03/31 13:01:00;;;;;;;;;;;20.80;35.60;;;;;;5145964;27;19927;-55
2022/03/31 13:03:26;;;;;;;;;;;21.20;35.10;;;;;;5150966;27;19938;-56
2022/03/31 13:05:51;;;;;;;;;;;20.90;35.50;;;;;;5144931;27;19930;-55
2022/03/31 13:08:17;;;;;;;;;;;21.20;35.20;;;;;;5141726;27;19930;-54
2022/03/31 13:10:43;;;;;;;;;;;21.00;35.50;;;;;;5150980;27;19923;-59
2022/03/31 13:13:10;;;;;;;;;;;21.30;34.90;;;;;;5145693;27;20316;-53
2022/03/31 13:15:38;;;;;;;;;;;21.10;35.30;;;;;;5150990;27;20021;-58
2022/03/31 13:18:04;;;;;;;;;;;21.20;35.10;;;;;;5146035;27;20331;-56
2022/03/31 13:20:30;;;;;;;;;;;20.90;35.50;;;;;;5145611;27;20014;-58
2022/03/31 13:22:56;;;;;;;;;;;21.20;35.00;;;;;;5150491;27;19923;-58
2022/03/31 13:25:21;;;;;;;;;;;21.10;35.20;;;;;;5142822;27;19930;-58
2022/03/31 13:27:47;;;;;;;;;;;21.10;35.20;;;;;;5124083;27;19926;-59
2022/03/31 13:30:13;;;;;;;;;;;21.00;35.40;;;;;;5150567;27;19931;-57
2022/03/31 13:32:39;;;;;;;;;;;21.10;35.20;;;;;;5145384;27;20207;-59
2022/03/31 13:35:05;;;;;;;;;;;21.00;35.50;;;;;;5148940;27;19923;-57
2022/03/31 13:37:32;;;;;;;;;;;21.10;35.20;;;;;;5147945;27;19927;-57
2022/03/31 13:39:59;;;;;;;;;;;20.90;35.60;;;;;;5145005;27;20409;-58
2022/03/31 13:42:25;;;;;;;;;;;21.20;35.10;;;;;;5149751;27;19953;-50
2022/03/31 13:44:52;;;;;;;;;;;21.00;35.30;;;;;;5122797;27;20298;-57
2022/03/31 13:47:18;;;;;;;;;;;21.20;34.90;;;;;;5143966;27;20382;-55
2022/03/31 13:49:44;;;;;;;;;;;21.10;35.10;;;;;;5150418;27;19977;-56
2022/03/31 13:52:10;;;;;;;;;;;21.00;34.90;;;;;;5144899;27;19923;-58
2022/03/31 13:54:38;;;;;;;;;;;21.00;35.20;;;;;;5144783;27;19978;-57
2022/03/31 13:57:04;;;;;;;;;;;21.30;34.80;;;;;;5150216;27;20433;-59
2022/03/31 14:02:16;;;;;;;;;;;21.20;35.20;;;;;;5144035;27;20393;-53
2022/03/31 14:04:42;;;;;;;;;;;21.00;35.70;;;;;;5146320;27;20359;-55
2022/03/31 14:07:08;;;;;;;;;;;21.10;35.80;;;;;;5144552;27;19950;-58
2022/03/31 14:09:35;;;;;;;;;;;21.10;36.00;;;;;;5149901;27;19933;-56
2022/03/31 14:12:01;;;;;;;;;;;21.00;36.00;;;;;;5144626;27;19933;-58
2022/03/31 14:14:27;;;;;;;;;;;21.10;35.80;;;;;;5144332;27;20293;-58
2022/03/31 14:16:54;;;;;;;;;;;21.10;35.80;;;;;;5149804;27;20558;-59
2022/03/31 14:19:20;;;;;;;;;;;20.90;36.30;;;;;;5143584;27;19927;-57